Terminal Aerodrome Forecast
Issued by NWS Shreveport, LA

Home | Current Version | Previous Version | Text Only | Print | Product List | Glossary On
Versions: 1 2 3 4 5 6 7 8 9 10 11 12 13 14 15
000
FTUS44 KSHV 222300
TAFMLU
TAF
KMLU 222329Z 2300/2324 03005KT P6SM FEW250
     FM230800 05003KT P6SM SCT250
     FM231500 04007KT P6SM BKN250=

USA.gov is the U.S. government's official web portal to all federal, state and local government web resources and services.